Time;durP1;ratioP1;P1;durP2;ratioP2;P2;SDS_P1;SDS_P2;PMS_P1;PMS_P2;Temp;Humidity;BMP_temperature;BMP_pressure;BME280_temperature;BME280_humidity;BME280_pressure;Samples;Min_cycle;Max_cycle;Signal;HPM_P1;HPM_P2
2022/12/09 00:03:12;;;;;;;6.32;2.65;;;17.20;56.10;;;;;;10448364;28;20515;-31
2022/12/09 00:08:14;;;;;;;5.13;2.70;;;17.20;56.10;;;;;;10443350;28;20052;-32
2022/12/09 00:13:15;;;;;;;5.47;3.37;;;17.20;56.10;;;;;;10437541;28;20073;-31
2022/12/09 00:18:19;;;;;;;6.28;2.42;;;17.20;56.00;;;;;;10442440;28;20048;-34
2022/12/09 00:23:20;;;;;;;2.72;1.55;;;17.20;55.90;;;;;;10436842;28;20144;-33
2022/12/09 00:28:22;;;;;;;2.50;1.87;;;17.20;56.10;;;;;;10436397;28;20095;-30
2022/12/09 00:33:26;;;;;;;2.60;1.90;;;17.20;55.90;;;;;;10438226;28;20501;-31
2022/12/09 00:38:27;;;;;;;4.30;2.53;;;17.10;56.10;;;;;;10433803;28;20496;-32
2022/12/09 00:43:29;;;;;;;4.93;2.67;;;17.00;56.10;;;;;;10439116;28;20049;-31
2022/12/09 00:48:33;;;;;;;3.43;1.70;;;17.10;55.90;;;;;;10434047;28;20116;-33
2022/12/09 00:53:35;;;;;;;4.35;2.25;;;17.00;55.90;;;;;;10429689;28;20054;-34
2022/12/09 00:58:37;;;;;;;4.20;2.00;;;17.00;55.80;;;;;;10432888;28;20429;-33
2022/12/09 01:03:40;;;;;;;3.92;1.85;;;17.00;55.70;;;;;;10438158;28;20136;-30
2022/12/09 01:08:42;;;;;;;2.95;1.30;;;17.00;55.80;;;;;;10451323;28;20053;-31
2022/12/09 01:13:44;;;;;;;6.97;3.53;;;17.00;55.70;;;;;;10455615;28;20061;-31
2022/12/09 01:18:47;;;;;;;3.27;2.10;;;17.00;55.70;;;;;;10461338;28;20080;-35
2022/12/09 01:23:49;;;;;;;5.60;2.50;;;16.90;55.70;;;;;;10456832;28;20495;-32
2022/12/09 01:28:53;;;;;;;3.53;1.50;;;17.00;55.70;;;;;;10453123;28;21596;-32
2022/12/09 01:33:57;;;;;;;2.97;1.50;;;16.90;55.60;;;;;;10454603;28;20083;-31
2022/12/09 01:38:59;;;;;;;2.80;2.03;;;16.90;55.70;;;;;;10449177;28;20048;-31
2022/12/09 01:44:08;;;;;;;;;;;16.90;55.50;;;;;;10460380;28;20060;-32
2022/12/09 01:49:16;;;;;;;4.63;2.20;;;16.90;55.60;;;;;;10445327;28;19920;-34
2022/12/09 01:54:18;;;;;;;5.75;2.88;;;16.90;55.50;;;;;;10447533;28;20037;-32
2022/12/09 01:59:21;;;;;;;4.28;2.17;;;16.90;55.50;;;;;;10444520;28;20081;-33
2022/12/09 02:04:26;;;;;;;6.40;2.83;;;16.90;55.50;;;;;;10441673;28;20049;-31
2022/12/09 02:09:28;;;;;;;4.45;2.63;;;16.90;55.50;;;;;;10451112;28;20107;-32
2022/12/09 02:14:32;;;;;;;4.13;2.50;;;16.90;55.50;;;;;;10456875;28;20110;-32
2022/12/09 02:19:48;;;;;;;6.57;3.85;;;16.90;55.40;;;;;;10441153;28;20511;-31
2022/12/09 02:24:56;;;;;;;5.90;2.55;;;16.80;55.40;;;;;;10446122;28;20056;-31
2022/12/09 02:30:14;;;;;;;5.70;2.55;;;16.80;55.50;;;;;;10452764;28;20493;-34
2022/12/09 02:35:23;;;;;;;3.33;1.88;;;16.80;55.40;;;;;;10434336;28;20179;-34
2022/12/09 02:40:29;;;;;;;4.32;2.40;;;16.70;55.40;;;;;;10442300;28;20130;-33
2022/12/09 02:45:32;;;;;;;3.40;2.00;;;16.80;55.30;;;;;;10425490;28;20579;-32
2022/12/09 02:50:38;;;;;;;1.83;1.42;;;16.70;55.30;;;;;;10441603;28;20083;-31
2022/12/09 02:55:43;;;;;;;2.58;1.80;;;16.80;55.30;;;;;;10446567;28;20157;-33
2022/12/09 03:00:45;;;;;;;3.75;2.05;;;16.70;55.40;;;;;;10449762;28;20084;-31
2022/12/09 03:05:55;;;;;;;2.33;1.60;;;16.70;55.20;;;;;;10443563;28;20095;-32
2022/12/09 03:11:00;;;;;;;3.83;2.25;;;16.70;55.30;;;;;;10441662;28;20075;-35
2022/12/09 03:16:10;;;;;;;2.17;1.20;;;16.70;56.00;;;;;;10446181;28;20092;-34
2022/12/09 03:21:16;;;;;;;2.08;1.48;;;16.70;55.30;;;;;;10440053;28;20557;-35
2022/12/09 03:26:19;;;;;;;3.13;2.20;;;16.70;56.00;;;;;;10453385;28;20520;-36
2022/12/09 03:31:22;;;;;;;;;;;16.60;55.30;;;;;;10458618;28;20048;-32
2022/12/09 03:36:28;;;;;;;3.22;2.20;;;16.60;55.30;;;;;;10455822;28;19924;-32
2022/12/09 03:41:33;;;;;;;1.77;1.05;;;16.60;55.30;;;;;;10454228;28;20427;-32
2022/12/09 03:46:35;;;;;;;1.77;1.38;;;16.60;55.20;;;;;;10453756;28;20041;-34
2022/12/09 03:51:44;;;;;;;4.22;1.40;;;16.60;55.20;;;;;;10455395;28;20110;-31
2022/12/09 03:56:50;;;;;;;1.55;1.10;;;16.60;55.10;;;;;;10454708;28;20056;-32
2022/12/09 04:01:53;;;;;;;0.73;0.73;;;16.60;55.10;;;;;;10459427;28;20049;-36
2022/12/09 04:06:56;;;;;;;;;;;16.60;55.10;;;;;;10462444;28;20070;-31
2022/12/09 04:11:57;;;;;;;;;;;16.60;55.20;;;;;;10451439;28;19928;-35
2022/12/09 04:16:59;;;;;;;3.28;1.38;;;16.60;55.00;;;;;;10449036;28;20035;-31
2022/12/09 04:22:03;;;;;;;1.70;1.33;;;16.50;55.00;;;;;;10457437;28;20149;-32
2022/12/09 04:27:05;;;;;;;2.88;1.42;;;16.50;55.10;;;;;;10456732;28;20069;-31
2022/12/09 04:32:07;;;;;;;2.07;1.40;;;16.50;55.10;;;;;;10463380;28;20045;-31
2022/12/09 04:37:10;;;;;;;4.18;1.40;;;16.50;55.00;;;;;;10452661;28;20049;-36
2022/12/09 04:42:12;;;;;;;1.40;1.20;;;16.50;55.00;;;;;;10454878;28;20084;-29
2022/12/09 04:47:14;;;;;;;1.30;1.17;;;16.50;55.00;;;;;;10453883;28;20099;-32
2022/12/09 04:52:18;;;;;;;2.60;1.77;;;16.50;55.00;;;;;;10459099;28;20414;-33
2022/12/09 04:57:20;;;;;;;1.75;1.30;;;16.50;54.90;;;;;;10461768;28;20810;-33
2022/12/09 05:02:22;;;;;;;2.10;1.47;;;16.50;55.00;;;;;;10440285;28;20041;-35
2022/12/09 05:07:25;;;;;;;2.93;2.07;;;16.50;54.90;;;;;;10434130;28;20053;-33
2022/12/09 05:12:27;;;;;;;1.75;1.45;;;16.50;54.90;;;;;;10445378;28;20131;-34
2022/12/09 05:17:29;;;;;;;1.50;1.13;;;16.40;54.90;;;;;;10447648;28;20122;-31
2022/12/09 05:22:32;;;;;;;1.23;1.07;;;16.40;54.90;;;;;;10432077;28;20045;-33
2022/12/09 05:27:34;;;;;;;1.45;0.90;;;16.50;55.00;;;;;;10435182;28;20136;-31
2022/12/09 05:32:36;;;;;;;1.63;1.33;;;16.70;54.60;;;;;;10435787;28;20071;-30
2022/12/09 05:37:39;;;;;;;1.77;1.40;;;16.90;54.40;;;;;;10436807;28;20363;-27
2022/12/09 05:42:41;;;;;;;1.80;1.30;;;17.00;54.30;;;;;;10446254;28;20055;-32
2022/12/09 05:47:43;;;;;;;1.13;1.02;;;17.00;54.30;;;;;;10451882;28;20139;-33
2022/12/09 05:52:46;;;;;;;2.72;1.40;;;17.10;54.30;;;;;;10429663;28;20049;-35
2022/12/09 05:57:48;;;;;;;1.55;1.08;;;17.20;54.20;;;;;;10435899;28;20103;-32
2022/12/09 06:02:50;;;;;;;1.52;1.15;;;17.20;54.20;;;;;;10432621;28;20049;-31
2022/12/09 06:07:53;;;;;;;1.50;1.40;;;17.20;54.10;;;;;;10423112;28;20402;-36
2022/12/09 06:12:55;;;;;;;2.33;1.23;;;17.20;54.10;;;;;;10448940;28;20541;-30
2022/12/09 06:17:57;;;;;;;1.30;1.20;;;17.30;54.10;;;;;;10435853;28;20053;-31
2022/12/09 06:23:00;;;;;;;1.10;0.87;;;17.30;54.10;;;;;;10428991;28;20519;-28
2022/12/09 06:28:02;;;;;;;3.40;1.30;;;17.30;54.10;;;;;;10427280;28;20471;-32
2022/12/09 06:33:04;;;;;;;3.30;1.20;;;17.30;54.20;;;;;;10435837;28;20040;-31
2022/12/09 06:38:07;;;;;;;1.27;1.08;;;17.30;54.10;;;;;;10424204;28;20081;-32
2022/12/09 06:43:10;;;;;;;1.77;1.25;;;17.30;54.10;;;;;;10423295;28;20039;-33
2022/12/09 06:48:12;;;;;;;;;;;17.30;54.10;;;;;;10423011;28;20132;-29
2022/12/09 06:53:15;;;;;;;1.88;1.20;;;17.40;54.20;;;;;;10425754;28;19925;-37
2022/12/09 06:58:17;;;;;;;3.33;2.10;;;17.40;54.10;;;;;;10420293;28;20098;-33
2022/12/09 07:15:29;;;;;;;2.90;2.10;;;17.50;53.40;;;;;;10488924;27;20196;-33
2022/12/09 07:20:31;;;;;;;1.45;1.35;;;17.50;54.00;;;;;;10483609;28;20048;-31
2022/12/09 07:25:33;;;;;;;2.15;1.67;;;17.50;54.00;;;;;;10483039;28;20044;-34
2022/12/09 07:30:38;;;;;;;2.10;1.67;;;17.50;53.80;;;;;;10482647;28;20138;-31
2022/12/09 07:35:40;;;;;;;3.17;2.00;;;17.50;53.90;;;;;;10483295;28;20041;-33
2022/12/09 07:40:42;;;;;;;2.40;1.60;;;17.50;54.00;;;;;;10482006;28;20088;-34
2022/12/09 07:45:45;;;;;;;2.23;1.53;;;17.50;54.20;;;;;;10481266;28;20069;-37
2022/12/09 07:50:47;;;;;;;4.68;1.83;;;17.40;54.40;;;;;;10486043;28;20997;-33
2022/12/09 07:55:49;;;;;;;5.80;2.20;;;17.40;54.40;;;;;;10485794;28;20481;-33
2022/12/09 08:00:52;;;;;;;4.45;1.83;;;17.30;54.60;;;;;;10476120;28;20136;-34
2022/12/09 08:05:54;;;;;;;3.05;2.03;;;17.30;54.70;;;;;;10480902;28;20045;-31
2022/12/09 08:10:56;;;;;;;5.33;2.63;;;17.30;54.70;;;;;;10479854;28;20057;-32
2022/12/09 08:16:03;;;;;;;2.47;1.98;;;17.20;54.80;;;;;;10479625;28;20463;-36
2022/12/09 08:21:06;;;;;;;6.75;2.65;;;17.20;54.80;;;;;;10485057;28;20800;-33
2022/12/09 08:26:08;;;;;;;11.35;2.47;;;17.20;54.90;;;;;;10455848;28;20083;-32
2022/12/09 08:31:14;;;;;;;3.08;2.30;;;17.10;54.80;;;;;;10449395;28;20569;-37
2022/12/09 08:36:18;;;;;;;3.95;2.45;;;17.10;54.90;;;;;;10452786;28;20509;-32
2022/12/09 08:41:33;;;;;;;3.83;2.20;;;17.10;54.80;;;;;;10449757;28;20045;-32
2022/12/09 08:46:38;;;;;;;7.90;2.60;;;17.00;55.00;;;;;;10452112;28;20064;-36
2022/12/09 08:51:40;;;;;;;8.05;3.42;;;17.10;54.80;;;;;;10449252;28;20041;-32
2022/12/09 08:56:44;;;;;;;5.93;2.67;;;17.00;54.80;;;;;;10452526;28;20486;-34
2022/12/09 09:01:48;;;;;;;10.25;3.47;;;17.00;54.80;;;;;;10452681;28;20471;-32
2022/12/09 09:06:52;;;;;;;6.35;4.35;;;16.90;54.80;;;;;;10451470;28;20494;-33
2022/12/09 09:11:54;;;;;;;8.77;5.25;;;17.00;54.80;;;;;;10460312;28;20118;-31
2022/12/09 09:16:57;;;;;;;8.80;4.93;;;17.00;54.80;;;;;;10439138;28;20071;-33
2022/12/09 09:21:59;;;;;;;8.05;4.72;;;17.00;54.70;;;;;;10455013;28;20095;-33
2022/12/09 09:27:01;;;;;;;8.37;5.07;;;16.90;54.70;;;;;;10447647;28;20186;-31
2022/12/09 09:32:05;;;;;;;8.35;4.65;;;16.90;54.80;;;;;;10452287;28;20053;-33
2022/12/09 09:37:07;;;;;;;11.95;6.80;;;16.80;54.70;;;;;;10449117;28;20045;-32
2022/12/09 09:42:16;;;;;;;4.63;3.70;;;16.70;54.20;;;;;;10450708;28;20073;-32
2022/12/09 09:47:27;;;;;;;10.90;4.95;;;16.50;55.30;;;;;;10450540;28;20391;-36
2022/12/09 09:52:30;;;;;;;14.10;5.70;;;16.70;54.40;;;;;;10443435;28;20053;-35
2022/12/09 09:57:37;;;;;;;11.27;5.38;;;16.80;54.40;;;;;;10450925;28;20044;-32
2022/12/09 10:02:58;;;;;;;9.13;4.85;;;16.90;54.10;;;;;;10450172;28;20555;-35
2022/12/09 10:08:18;;;;;;;8.48;5.32;;;16.80;54.10;;;;;;10439562;28;20110;-35
2022/12/09 10:13:30;;;;;;;10.98;6.15;;;16.90;54.10;;;;;;10449489;28;20053;-37
2022/12/09 10:18:38;;;;;;;14.68;8.15;;;16.90;54.20;;;;;;10446703;28;20453;-34
2022/12/09 10:23:40;;;;;;;12.43;6.40;;;16.70;54.10;;;;;;10436537;28;20517;-36
2022/12/09 10:28:46;;;;;;;11.57;6.30;;;16.70;54.20;;;;;;10449894;28;20552;-34
2022/12/09 10:33:49;;;;;;;11.00;6.47;;;16.60;54.30;;;;;;10440561;28;20053;-33
2022/12/09 10:38:51;;;;;;;12.57;6.85;;;16.50;54.50;;;;;;10441807;28;20072;-32
2022/12/09 10:44:10;;;;;;;20.87;10.57;;;16.60;54.20;;;;;;10448038;28;20064;-36
2022/12/09 10:49:20;;;;;;;13.65;6.93;;;16.70;53.90;;;;;;10435217;28;20467;-31
2022/12/09 10:54:32;;;;;;;12.38;7.07;;;16.70;53.70;;;;;;10448670;28;20122;-35
2022/12/09 10:59:35;;;;;;;13.05;7.63;;;16.80;53.70;;;;;;10448047;28;20124;-30
2022/12/09 11:04:40;;;;;;;11.98;6.65;;;16.70;53.70;;;;;;10438503;28;20117;-34
2022/12/09 11:09:44;;;;;;;10.25;6.47;;;16.70;54.40;;;;;;10446505;28;20053;-32
2022/12/09 11:14:52;;;;;;;14.43;7.35;;;16.70;54.40;;;;;;10448471;28;20429;-37
2022/12/09 11:20:19;;;;;;;14.70;7.38;;;16.70;53.80;;;;;;10443067;28;20053;-32
2022/12/09 11:25:23;;;;;;;13.38;7.53;;;16.70;53.90;;;;;;10438590;28;20053;-31
2022/12/09 11:30:28;;;;;;;13.18;7.30;;;16.70;53.90;;;;;;10445432;28;20425;-32
2022/12/09 11:35:36;;;;;;;11.45;6.95;;;16.70;53.90;;;;;;10448207;28;20045;-32
2022/12/09 11:40:38;;;;;;;12.07;6.65;;;16.70;53.90;;;;;;10440745;28;20194;-32
2022/12/09 11:45:45;;;;;;;11.63;6.72;;;16.70;53.90;;;;;;10448336;28;20759;-31
2022/12/09 11:50:51;;;;;;;8.50;5.88;;;16.70;53.90;;;;;;10446371;28;20119;-31
2022/12/09 11:55:58;;;;;;;6.97;4.45;;;16.60;54.00;;;;;;10447857;28;20048;-33
2022/12/09 12:01:03;;;;;;;7.78;4.78;;;16.50;54.00;;;;;;10454118;28;20076;-34
2022/12/09 12:06:14;;;;;;;6.53;4.15;;;16.60;53.80;;;;;;10450815;28;20506;-33
2022/12/09 12:11:20;;;;;;;9.68;6.53;;;16.60;53.70;;;;;;10450957;28;20057;-36
2022/12/09 12:16:36;;;;;;;6.45;3.70;;;15.90;55.60;;;;;;10453778;28;20045;-32
2022/12/09 12:22:10;;;;;;;10.30;7.30;;;16.60;54.00;;;;;;10457661;28;20045;-28
2022/12/09 12:27:34;;;;;;;12.43;7.82;;;16.60;53.70;;;;;;10446152;28;20833;-31
2022/12/09 12:33:07;;;;;;;13.63;7.57;;;16.60;53.70;;;;;;10456553;28;20780;-31
2022/12/09 12:38:23;;;;;;;9.25;5.75;;;16.60;53.70;;;;;;10446011;28;20114;-31
2022/12/09 12:49:35;;;;;;;10.60;6.05;;;16.70;53.60;;;;;;10445496;28;20074;-31
2022/12/09 12:54:47;;;;;;;9.90;4.50;;;16.70;53.70;;;;;;10452353;28;20044;-32
2022/12/09 12:59:57;;;;;;;5.82;4.40;;;16.70;53.60;;;;;;10452874;28;20064;-32
2022/12/09 13:05:02;;;;;;;8.68;4.95;;;16.70;53.70;;;;;;10451997;28;20449;-32
2022/12/09 13:10:15;;;;;;;12.25;7.05;;;16.60;53.70;;;;;;10450209;28;20037;-33
2022/12/09 13:15:21;;;;;;;15.90;8.77;;;16.60;53.70;;;;;;10454149;28;20061;-34
2022/12/09 13:20:27;;;;;;;16.92;8.98;;;16.70;53.70;;;;;;10452245;28;20050;-31
2022/12/09 13:25:39;;;;;;;12.68;7.00;;;16.70;53.50;;;;;;10447609;28;20068;-31
2022/12/09 13:30:47;;;;;;;16.67;8.97;;;16.70;53.60;;;;;;10447173;28;20129;-31
2022/12/09 13:35:55;;;;;;;9.73;6.47;;;16.90;53.50;;;;;;10451325;28;20417;-34
2022/12/09 13:40:58;;;;;;;11.02;7.25;;;17.10;53.10;;;;;;10450302;28;20449;-31
2022/12/09 13:46:01;;;;;;;11.40;4.80;;;17.30;52.80;;;;;;10449695;28;20529;-32
2022/12/09 13:51:03;;;;;;;6.78;4.28;;;17.50;52.70;;;;;;10450465;28;20086;-32
2022/12/09 13:56:08;;;;;;;7.15;3.95;;;17.60;52.70;;;;;;10445945;28;20076;-33
2022/12/09 14:01:20;;;;;;;11.13;4.82;;;17.70;52.60;;;;;;10449054;28;20565;-33
2022/12/09 14:06:25;;;;;;;10.25;4.47;;;17.70;52.50;;;;;;10450762;28;20060;-32
2022/12/09 14:11:47;;;;;;;8.48;4.80;;;17.90;52.50;;;;;;10449612;28;20111;-34
2022/12/09 14:16:49;;;;;;;8.85;5.35;;;17.90;52.50;;;;;;10446581;28;20064;-33
2022/12/09 14:22:07;;;;;;;;;;;18.00;52.40;;;;;;10453431;28;20102;-31
2022/12/09 14:27:15;;;;;;;8.25;5.28;;;18.10;52.30;;;;;;10448805;28;19932;-33
2022/12/09 14:32:28;;;;;;;8.50;5.20;;;18.10;52.30;;;;;;10438979;28;20140;-34
2022/12/09 14:37:41;;;;;;;9.68;5.88;;;18.10;52.30;;;;;;10443766;28;20064;-32
2022/12/09 14:42:50;;;;;;;9.77;5.65;;;18.20;52.30;;;;;;10442472;28;20052;-32
2022/12/09 14:47:52;;;;;;;8.68;5.40;;;18.10;52.40;;;;;;10444290;28;20052;-33
2022/12/09 14:52:56;;;;;;;9.45;5.15;;;18.10;52.40;;;;;;10442566;28;20083;-31
2022/12/09 14:58:01;;;;;;;7.20;4.13;;;18.10;52.50;;;;;;10445323;28;20049;-32
2022/12/09 15:03:06;;;;;;;6.63;4.60;;;18.20;52.50;;;;;;10444212;28;20056;-31
2022/12/09 15:08:30;;;;;;;5.95;3.60;;;18.20;52.50;;;;;;10444053;28;20053;-35
2022/12/09 15:13:36;;;;;;;7.15;3.60;;;18.20;52.60;;;;;;10439176;28;20084;-38
2022/12/09 15:18:40;;;;;;;4.20;2.78;;;18.20;52.70;;;;;;10448198;28;20088;-38
2022/12/09 15:23:44;;;;;;;5.97;2.78;;;18.20;52.60;;;;;;10438934;28;20136;-33
2022/12/09 15:28:49;;;;;;;4.30;3.05;;;18.20;52.50;;;;;;10439866;28;20066;-30
2022/12/09 15:33:57;;;;;;;3.35;2.28;;;18.20;52.60;;;;;;10446907;28;20111;-29
2022/12/09 15:39:02;;;;;;;6.05;3.40;;;18.20;52.50;;;;;;10451612;28;20041;-32
2022/12/09 15:44:09;;;;;;;4.30;2.33;;;18.20;52.60;;;;;;10454556;28;20087;-32
2022/12/09 15:49:14;;;;;;;4.95;2.75;;;18.20;52.60;;;;;;10454781;28;20049;-33
2022/12/09 15:54:20;;;;;;;4.20;2.25;;;18.10;52.60;;;;;;10451979;28;20111;-32
2022/12/09 15:59:28;;;;;;;5.13;2.25;;;18.10;52.70;;;;;;10444240;28;20102;-31
2022/12/09 16:04:34;;;;;;;5.40;2.83;;;18.10;52.70;;;;;;10450072;28;20048;-30
2022/12/09 16:09:36;;;;;;;8.30;4.72;;;18.00;52.70;;;;;;10452545;28;20055;-35
2022/12/09 16:14:44;;;;;;;6.75;4.43;;;17.90;52.80;;;;;;10458427;28;20393;-36
2022/12/09 16:19:46;;;;;;;8.57;3.53;;;17.90;52.70;;;;;;10456549;28;20134;-32
2022/12/09 16:24:50;;;;;;;3.95;2.75;;;18.00;52.70;;;;;;10450819;28;20107;-33
2022/12/09 16:29:55;;;;;;;4.07;2.90;;;18.00;52.60;;;;;;10443060;28;20049;-33
2022/12/09 16:34:59;;;;;;;4.30;2.70;;;18.00;52.60;;;;;;10445464;28;20060;-32
2022/12/09 16:40:34;;;;;;;3.97;2.38;;;18.00;52.50;;;;;;10447168;28;20102;-32
2022/12/09 16:45:39;;;;;;;5.30;2.67;;;18.00;52.60;;;;;;10446292;28;20132;-34
2022/12/09 16:50:45;;;;;;;5.55;2.70;;;17.90;52.70;;;;;;10443806;28;20139;-32
2022/12/09 16:55:52;;;;;;;15.85;3.22;;;17.90;52.70;;;;;;10449003;28;20056;-31
2022/12/09 17:00:57;;;;;;;7.50;2.60;;;17.90;52.80;;;;;;10446100;28;20049;-35
2022/12/09 17:05:59;;;;;;;5.68;3.08;;;17.90;52.80;;;;;;10447445;28;20413;-35
2022/12/09 17:11:01;;;;;;;5.03;3.00;;;17.90;52.90;;;;;;10449121;28;20045;-31
2022/12/09 17:16:06;;;;;;;5.68;1.95;;;17.80;53.00;;;;;;10453364;28;20140;-32
2022/12/09 17:21:10;;;;;;;6.13;2.40;;;17.90;53.20;;;;;;10451967;28;20060;-31
2022/12/09 17:26:14;;;;;;;6.93;3.85;;;17.80;53.00;;;;;;10450822;28;20046;-31
2022/12/09 17:31:20;;;;;;;6.68;4.00;;;17.60;53.10;;;;;;10450427;28;20044;-31
2022/12/09 17:36:22;;;;;;;7.78;3.80;;;17.50;53.90;;;;;;10460423;28;20053;-33
2022/12/09 17:41:24;;;;;;;6.23;3.70;;;17.70;53.40;;;;;;10449070;28;20057;-33
2022/12/09 17:46:27;;;;;;;7.90;3.50;;;17.60;53.60;;;;;;10451143;28;21074;-32
2022/12/09 17:51:29;;;;;;;7.55;4.07;;;17.60;53.90;;;;;;10451642;28;20103;-33
2022/12/09 17:56:31;;;;;;;9.40;4.50;;;17.50;54.20;;;;;;10429673;28;20103;-29
2022/12/09 18:01:36;;;;;;;7.30;4.13;;;17.50;54.50;;;;;;10444937;28;20107;-31
2022/12/09 18:06:40;;;;;;;15.18;6.00;;;17.50;54.80;;;;;;10446997;28;20049;-35
2022/12/09 18:11:43;;;;;;;14.23;5.70;;;17.20;55.10;;;;;;10446292;28;20061;-30
2022/12/09 18:16:47;;;;;;;26.13;11.10;;;16.90;55.90;;;;;;10437574;28;20559;-38
2022/12/09 18:21:49;;;;;;;25.13;11.38;;;16.50;55.10;;;;;;10447667;28;20409;-38
2022/12/09 18:26:51;;;;;;;13.57;6.07;;;16.10;53.80;;;;;;10452190;28;20056;-33
2022/12/09 18:31:55;;;;;;;13.02;5.57;;;15.80;59.30;;;;;;10450801;28;20425;-32
2022/12/09 18:36:57;;;;;;;10.60;5.75;;;16.20;55.60;;;;;;10446223;28;20049;-31
2022/12/09 18:41:59;;;;;;;11.03;5.50;;;16.60;57.40;;;;;;10444671;28;20041;-32
2022/12/09 18:47:02;;;;;;;14.13;5.20;;;16.80;56.60;;;;;;10445295;28;20044;-33
2022/12/09 18:52:04;;;;;;;12.98;7.05;;;17.00;56.20;;;;;;10445346;28;20132;-34
2022/12/09 18:57:06;;;;;;;14.55;6.50;;;17.10;56.10;;;;;;10442607;28;20056;-32
2022/12/09 19:02:11;;;;;;;10.93;6.77;;;17.10;56.10;;;;;;10440806;28;20077;-34
2022/12/09 19:07:14;;;;;;;12.57;7.93;;;17.10;56.00;;;;;;10442784;28;20491;-33
2022/12/09 19:12:16;;;;;;;16.13;8.13;;;17.10;55.80;;;;;;10449068;28;20156;-31
2022/12/09 19:17:20;;;;;;;17.55;8.90;;;17.30;55.40;;;;;;10440249;28;20061;-32
2022/12/09 19:22:21;;;;;;;17.33;9.13;;;17.00;54.80;;;;;;10447375;28;20053;-31
2022/12/09 19:27:23;;;;;;;16.00;9.37;;;16.90;56.10;;;;;;10445327;28;20052;-31
2022/12/09 19:32:27;;;;;;;16.97;9.87;;;16.90;55.30;;;;;;10442439;28;20155;-34
2022/12/09 19:37:28;;;;;;;18.98;11.55;;;16.60;55.20;;;;;;10448309;28;20057;-32
2022/12/09 19:42:30;;;;;;;19.63;11.07;;;17.10;55.50;;;;;;10447134;28;20119;-32
2022/12/09 19:47:33;;;;;;;11.03;7.00;;;17.30;55.00;;;;;;10447653;28;20049;-38
2022/12/09 19:52:35;;;;;;;13.50;6.63;;;17.60;54.50;;;;;;10446206;28;20531;-32
2022/12/09 19:57:37;;;;;;;10.25;5.25;;;17.70;54.30;;;;;;10438273;28;20167;-37
2022/12/09 20:02:40;;;;;;;12.80;6.10;;;17.80;54.30;;;;;;10436354;28;20246;-35
2022/12/09 20:07:42;;;;;;;10.57;5.85;;;17.80;54.40;;;;;;10440338;28;20073;-31
2022/12/09 20:12:44;;;;;;;12.43;5.95;;;17.80;54.40;;;;;;10443349;28;20158;-31
2022/12/09 20:17:47;;;;;;;9.40;6.18;;;17.70;54.60;;;;;;10443075;28;20057;-39
2022/12/09 20:22:49;;;;;;;12.52;6.43;;;17.70;54.60;;;;;;10447417;28;20437;-32
2022/12/09 20:27:51;;;;;;;9.15;5.78;;;17.70;54.50;;;;;;10441648;28;20076;-33
2022/12/09 20:32:55;;;;;;;9.13;5.68;;;17.70;54.50;;;;;;10444999;28;20559;-34
2022/12/09 20:37:57;;;;;;;15.88;7.03;;;17.80;54.40;;;;;;10447955;28;20052;-36
2022/12/09 20:42:59;;;;;;;14.23;6.20;;;17.70;54.40;;;;;;10449338;28;20049;-32
2022/12/09 20:48:02;;;;;;;15.13;8.13;;;17.80;54.40;;;;;;10448809;28;20080;-30
2022/12/09 20:53:04;;;;;;;11.32;6.28;;;17.80;54.10;;;;;;10447057;28;20045;-33
2022/12/09 20:58:06;;;;;;;13.18;6.05;;;17.80;54.10;;;;;;10445722;28;20298;-30
2022/12/09 21:03:09;;;;;;;10.88;6.15;;;17.90;54.10;;;;;;10445156;28;20198;-32
2022/12/09 21:08:11;;;;;;;11.13;6.05;;;17.80;54.00;;;;;;10445539;28;20572;-31
2022/12/09 21:13:13;;;;;;;8.55;5.78;;;17.80;54.20;;;;;;10442690;28;20053;-32
2022/12/09 21:18:17;;;;;;;12.40;6.55;;;17.70;54.20;;;;;;10447090;28;20412;-29
2022/12/09 21:23:18;;;;;;;14.75;6.28;;;17.50;54.60;;;;;;10455813;28;20534;-32
2022/12/09 21:28:20;;;;;;;16.27;9.40;;;17.10;55.30;;;;;;10443193;28;20045;-30
2022/12/09 21:33:24;;;;;;;13.50;7.57;;;16.90;52.80;;;;;;10445681;28;20726;-32
2022/12/09 21:38:25;;;;;;;11.50;8.35;;;17.40;54.80;;;;;;10445782;28;20041;-33
2022/12/09 21:43:27;;;;;;;12.40;6.40;;;17.50;54.50;;;;;;10443424;28;20048;-29
2022/12/09 21:48:31;;;;;;;9.38;5.63;;;17.60;54.50;;;;;;10437432;28;20055;-35
2022/12/09 21:53:33;;;;;;;11.52;6.05;;;17.60;54.40;;;;;;10445396;28;20470;-38
2022/12/09 21:58:35;;;;;;;15.05;6.63;;;17.60;54.50;;;;;;10443974;28;20045;-34
2022/12/09 22:03:39;;;;;;;10.93;5.82;;;17.50;54.50;;;;;;10446038;28;20693;-32
2022/12/09 22:08:41;;;;;;;9.93;4.95;;;17.40;54.50;;;;;;10444284;28;20049;-31
2022/12/09 22:13:44;;;;;;;9.20;5.25;;;17.40;54.60;;;;;;10443588;28;20169;-33
2022/12/09 22:18:48;;;;;;;11.05;5.68;;;17.40;54.40;;;;;;10442034;28;20052;-35
2022/12/09 22:23:50;;;;;;;10.43;6.18;;;17.50;54.50;;;;;;10438031;28;20972;-31
2022/12/09 22:28:53;;;;;;;16.52;6.70;;;17.40;54.50;;;;;;10446472;28;20044;-32
2022/12/09 22:33:59;;;;;;;11.45;6.05;;;17.40;54.50;;;;;;10447629;28;20049;-32
2022/12/09 22:39:01;;;;;;;13.00;7.30;;;17.40;54.50;;;;;;10449472;28;20468;-32
2022/12/09 22:44:04;;;;;;;17.35;8.43;;;17.30;54.50;;;;;;10436864;28;20206;-34
2022/12/09 22:49:08;;;;;;;17.23;7.78;;;17.20;54.60;;;;;;10433099;28;20067;-32
2022/12/09 22:54:11;;;;;;;24.35;7.13;;;17.20;54.60;;;;;;10446936;28;20053;-32
2022/12/09 22:59:14;;;;;;;17.13;6.82;;;17.20;54.70;;;;;;10442562;28;20103;-33
2022/12/09 23:04:20;;;;;;;14.25;6.68;;;17.20;54.60;;;;;;10447251;28;20490;-33
2022/12/09 23:09:24;;;;;;;14.30;6.60;;;17.20;54.60;;;;;;10444276;28;20049;-32
2022/12/09 23:14:26;;;;;;;17.70;6.47;;;17.10;54.60;;;;;;10443346;28;20640;-36
2022/12/09 23:19:29;;;;;;;16.30;6.50;;;17.10;54.60;;;;;;10444120;28;20037;-33
2022/12/09 23:24:31;;;;;;;14.10;6.03;;;17.10;54.60;;;;;;10444355;28;20053;-33
2022/12/09 23:29:33;;;;;;;19.08;7.47;;;17.10;54.60;;;;;;10444806;28;20068;-33
2022/12/09 23:34:36;;;;;;;14.07;7.73;;;17.00;54.60;;;;;;10444095;28;20053;-37
2022/12/09 23:39:38;;;;;;;12.45;7.30;;;17.00;54.60;;;;;;10449611;28;20095;-34
2022/12/09 23:44:40;;;;;;;13.95;6.88;;;17.00;54.60;;;;;;10451654;28;20450;-34
2022/12/09 23:49:43;;;;;;;19.92;9.02;;;17.00;54.50;;;;;;10442465;28;20044;-33
2022/12/09 23:54:45;;;;;;;18.13;10.50;;;17.00;54.40;;;;;;10445051;28;20102;-31
2022/12/09 23:59:48;;;;;;;14.80;8.20;;;17.00;54.50;;;;;;10457094;28;20053;-32
